sensor_id;sensor_type;location;lat;lon;timestamp;P1;durP1;ratioP1;P2;durP2;ratioP2
67712;SDS011;67640;55.784;49.138;2023-09-08T00:01:04;4.85;;;1.20;;
67712;SDS011;67640;55.784;49.138;2023-09-08T00:06:23;4.37;;;1.10;;
67712;SDS011;67640;55.784;49.138;2023-09-08T00:11:28;4.65;;;2.42;;
67712;SDS011;67640;55.784;49.138;2023-09-08T00:16:32;7.33;;;3.00;;
67712;SDS011;67640;55.784;49.138;2023-09-08T00:21:38;6.17;;;2.60;;
67712;SDS011;67640;55.784;49.138;2023-09-08T00:26:57;6.45;;;3.17;;
67712;SDS011;67640;55.784;49.138;2023-09-08T00:32:16;7.97;;;3.87;;
67712;SDS011;67640;55.784;49.138;2023-09-08T00:37:34;7.37;;;4.00;;
67712;SDS011;67640;55.784;49.138;2023-09-08T00:42:39;10.28;;;4.75;;
67712;SDS011;67640;55.784;49.138;2023-09-08T00:47:45;10.50;;;4.50;;
67712;SDS011;67640;55.784;49.138;2023-09-08T00:53:04;7.35;;;4.20;;
67712;SDS011;67640;55.784;49.138;2023-09-08T00:58:35;7.10;;;3.98;;
67712;SDS011;67640;55.784;49.138;2023-09-08T01:03:40;8.30;;;4.23;;
67712;SDS011;67640;55.784;49.138;2023-09-08T01:08:46;7.92;;;4.03;;
67712;SDS011;67640;55.784;49.138;2023-09-08T01:14:05;8.23;;;4.00;;
67712;SDS011;67640;55.784;49.138;2023-09-08T01:19:13;6.42;;;3.90;;
67712;SDS011;67640;55.784;49.138;2023-09-08T01:24:37;6.37;;;3.20;;
67712;SDS011;67640;55.784;49.138;2023-09-08T01:29:56;8.55;;;3.45;;
67712;SDS011;67640;55.784;49.138;2023-09-08T01:35:20;7.73;;;3.90;;
67712;SDS011;67640;55.784;49.138;2023-09-08T01:40:44;10.58;;;3.45;;
67712;SDS011;67640;55.784;49.138;2023-09-08T01:46:12;5.55;;;2.50;;
67712;SDS011;67640;55.784;49.138;2023-09-08T01:51:17;5.87;;;2.70;;
67712;SDS011;67640;55.784;49.138;2023-09-08T01:56:36;5.92;;;2.80;;
67712;SDS011;67640;55.784;49.138;2023-09-08T02:01:56;5.37;;;2.52;;
67712;SDS011;67640;55.784;49.138;2023-09-08T02:07:01;6.77;;;2.80;;
67712;SDS011;67640;55.784;49.138;2023-09-08T02:12:21;4.65;;;2.47;;
67712;SDS011;67640;55.784;49.138;2023-09-08T02:17:26;6.97;;;2.90;;
67712;SDS011;67640;55.784;49.138;2023-09-08T02:22:53;8.48;;;3.55;;
67712;SDS011;67640;55.784;49.138;2023-09-08T02:28:11;9.25;;;3.27;;
67712;SDS011;67640;55.784;49.138;2023-09-08T02:33:25;9.30;;;3.37;;
67712;SDS011;67640;55.784;49.138;2023-09-08T02:38:45;7.23;;;2.83;;
67712;SDS011;67640;55.784;49.138;2023-09-08T02:43:50;9.18;;;3.30;;
67712;SDS011;67640;55.784;49.138;2023-09-08T02:48:56;6.93;;;2.87;;
67712;SDS011;67640;55.784;49.138;2023-09-08T02:54:15;6.72;;;3.08;;
67712;SDS011;67640;55.784;49.138;2023-09-08T02:59:34;9.43;;;3.10;;
67712;SDS011;67640;55.784;49.138;2023-09-08T03:04:53;7.67;;;3.90;;
67712;SDS011;67640;55.784;49.138;2023-09-08T03:09:58;9.48;;;4.17;;
67712;SDS011;67640;55.784;49.138;2023-09-08T03:15:03;10.27;;;3.50;;
67712;SDS011;67640;55.784;49.138;2023-09-08T03:20:09;8.30;;;3.30;;
67712;SDS011;67640;55.784;49.138;2023-09-08T03:25:28;6.85;;;2.90;;
67712;SDS011;67640;55.784;49.138;2023-09-08T03:30:47;8.43;;;2.83;;
67712;SDS011;67640;55.784;49.138;2023-09-08T03:35:52;6.62;;;2.52;;
67712;SDS011;67640;55.784;49.138;2023-09-08T03:40:59;10.15;;;2.50;;
67712;SDS011;67640;55.784;49.138;2023-09-08T03:46:18;5.47;;;1.53;;
67712;SDS011;67640;55.784;49.138;2023-09-08T03:51:37;7.08;;;2.12;;
67712;SDS011;67640;55.784;49.138;2023-09-08T03:56:56;8.00;;;2.20;;
67712;SDS011;67640;55.784;49.138;2023-09-08T04:02:02;5.90;;;2.08;;
67712;SDS011;67640;55.784;49.138;2023-09-08T04:07:19;6.70;;;2.30;;
67712;SDS011;67640;55.784;49.138;2023-09-08T04:12:24;6.90;;;2.20;;
67712;SDS011;67640;55.784;49.138;2023-09-08T04:17:29;6.23;;;2.20;;
67712;SDS011;67640;55.784;49.138;2023-09-08T04:22:35;5.78;;;2.08;;
67712;SDS011;67640;55.784;49.138;2023-09-08T04:27:54;5.33;;;2.08;;
67712;SDS011;67640;55.784;49.138;2023-09-08T04:32:59;6.17;;;2.30;;
67712;SDS011;67640;55.784;49.138;2023-09-08T04:38:04;9.50;;;2.47;;
67712;SDS011;67640;55.784;49.138;2023-09-08T04:43:25;5.53;;;2.15;;
67712;SDS011;67640;55.784;49.138;2023-09-08T04:48:30;5.77;;;2.50;;
67712;SDS011;67640;55.784;49.138;2023-09-08T04:53:49;8.80;;;3.00;;
67712;SDS011;67640;55.784;49.138;2023-09-08T04:59:08;8.35;;;2.80;;
67712;SDS011;67640;55.784;49.138;2023-09-08T05:04:27;7.70;;;3.17;;
67712;SDS011;67640;55.784;49.138;2023-09-08T05:09:47;7.97;;;3.47;;
67712;SDS011;67640;55.784;49.138;2023-09-08T05:14:52;7.37;;;3.27;;
67712;SDS011;67640;55.784;49.138;2023-09-08T05:20:11;8.83;;;3.50;;
67712;SDS011;67640;55.784;49.138;2023-09-08T05:25:15;6.47;;;3.00;;
67712;SDS011;67640;55.784;49.138;2023-09-08T05:30:51;7.70;;;3.12;;
67712;SDS011;67640;55.784;49.138;2023-09-08T05:35:56;10.90;;;2.77;;
67712;SDS011;67640;55.784;49.138;2023-09-08T05:41:15;9.88;;;2.90;;
67712;SDS011;67640;55.784;49.138;2023-09-08T05:46:34;5.22;;;2.75;;
67712;SDS011;67640;55.784;49.138;2023-09-08T05:51:53;7.53;;;3.10;;
67712;SDS011;67640;55.784;49.138;2023-09-08T06:02:37;6.73;;;2.87;;
67712;SDS011;67640;55.784;49.138;2023-09-08T06:07:56;13.85;;;3.30;;
67712;SDS011;67640;55.784;49.138;2023-09-08T06:13:00;7.55;;;3.15;;
67712;SDS011;67640;55.784;49.138;2023-09-08T06:18:08;6.43;;;3.37;;
67712;SDS011;67640;55.784;49.138;2023-09-08T06:23:12;9.85;;;3.87;;
67712;SDS011;67640;55.784;49.138;2023-09-08T06:28:17;17.20;;;3.53;;
67712;SDS011;67640;55.784;49.138;2023-09-08T06:33:30;13.83;;;3.92;;
67712;SDS011;67640;55.784;49.138;2023-09-08T06:38:49;8.88;;;4.00;;
67712;SDS011;67640;55.784;49.138;2023-09-08T06:44:08;10.60;;;4.00;;
67712;SDS011;67640;55.784;49.138;2023-09-08T06:49:27;10.88;;;4.67;;
67712;SDS011;67640;55.784;49.138;2023-09-08T06:54:32;13.62;;;4.30;;
67712;SDS011;67640;55.784;49.138;2023-09-08T06:59:51;10.80;;;4.10;;
67712;SDS011;67640;55.784;49.138;2023-09-08T07:05:30;14.75;;;4.47;;
67712;SDS011;67640;55.784;49.138;2023-09-08T07:10:51;11.43;;;4.53;;
67712;SDS011;67640;55.784;49.138;2023-09-08T07:16:10;13.40;;;4.08;;
67712;SDS011;67640;55.784;49.138;2023-09-08T07:21:15;19.20;;;4.30;;
67712;SDS011;67640;55.784;49.138;2023-09-08T07:26:21;8.23;;;3.87;;
67712;SDS011;67640;55.784;49.138;2023-09-08T07:31:31;14.20;;;4.00;;
67712;SDS011;67640;55.784;49.138;2023-09-08T07:36:50;13.87;;;4.80;;
67712;SDS011;67640;55.784;49.138;2023-09-08T07:42:09;11.30;;;4.05;;
67712;SDS011;67640;55.784;49.138;2023-09-08T07:47:28;12.65;;;4.80;;
67712;SDS011;67640;55.784;49.138;2023-09-08T07:52:34;19.03;;;5.57;;
67712;SDS011;67640;55.784;49.138;2023-09-08T08:02:59;10.90;;;5.12;;
67712;SDS011;67640;55.784;49.138;2023-09-08T08:08:04;14.70;;;4.80;;
67712;SDS011;67640;55.784;49.138;2023-09-08T08:13:23;13.08;;;5.25;;
67712;SDS011;67640;55.784;49.138;2023-09-08T08:18:30;11.05;;;4.10;;
67712;SDS011;67640;55.784;49.138;2023-09-08T08:23:49;10.17;;;4.20;;
67712;SDS011;67640;55.784;49.138;2023-09-08T08:29:08;9.48;;;4.22;;
67712;SDS011;67640;55.784;49.138;2023-09-08T08:34:13;19.93;;;4.63;;
67712;SDS011;67640;55.784;49.138;2023-09-08T08:39:18;15.28;;;5.78;;
67712;SDS011;67640;55.784;49.138;2023-09-08T08:44:26;12.50;;;4.72;;
67712;SDS011;67640;55.784;49.138;2023-09-08T08:49:45;13.10;;;4.90;;
67712;SDS011;67640;55.784;49.138;2023-09-08T08:54:51;15.15;;;5.10;;
67712;SDS011;67640;55.784;49.138;2023-09-08T09:00:10;12.73;;;4.83;;
67712;SDS011;67640;55.784;49.138;2023-09-08T09:05:17;13.60;;;4.80;;
67712;SDS011;67640;55.784;49.138;2023-09-08T09:10:36;11.10;;;4.63;;
67712;SDS011;67640;55.784;49.138;2023-09-08T09:15:41;10.43;;;4.95;;
67712;SDS011;67640;55.784;49.138;2023-09-08T09:21:14;13.35;;;5.22;;
67712;SDS011;67640;55.784;49.138;2023-09-08T09:37:18;9.10;;;2.50;;
67712;SDS011;67640;55.784;49.138;2023-09-08T09:42:23;7.37;;;2.30;;
67712;SDS011;67640;55.784;49.138;2023-09-08T09:47:29;10.38;;;2.00;;
67712;SDS011;67640;55.784;49.138;2023-09-08T09:52:49;9.65;;;1.70;;
67712;SDS011;67640;55.784;49.138;2023-09-08T10:03:33;6.37;;;2.00;;
67712;SDS011;67640;55.784;49.138;2023-09-08T10:08:39;8.23;;;2.75;;
67712;SDS011;67640;55.784;49.138;2023-09-08T10:13:45;8.10;;;3.90;;
67712;SDS011;67640;55.784;49.138;2023-09-08T10:19:07;9.30;;;2.57;;
67712;SDS011;67640;55.784;49.138;2023-09-08T10:29:51;17.47;;;6.50;;
67712;SDS011;67640;55.784;49.138;2023-09-08T10:35:10;5.65;;;1.80;;
67712;SDS011;67640;55.784;49.138;2023-09-08T10:45:54;6.57;;;3.00;;
67712;SDS011;67640;55.784;49.138;2023-09-08T10:56:55;8.83;;;3.10;;
67712;SDS011;67640;55.784;49.138;2023-09-08T11:07:40;5.30;;;1.20;;
67712;SDS011;67640;55.784;49.138;2023-09-08T11:12:45;3.67;;;1.00;;
67712;SDS011;67640;55.784;49.138;2023-09-08T11:18:05;3.33;;;1.00;;
67712;SDS011;67640;55.784;49.138;2023-09-08T11:23:10;3.17;;;0.70;;
67712;SDS011;67640;55.784;49.138;2023-09-08T11:28:29;2.72;;;0.60;;
67712;SDS011;67640;55.784;49.138;2023-09-08T11:33:48;3.92;;;0.88;;
67712;SDS011;67640;55.784;49.138;2023-09-08T11:38:53;5.33;;;1.13;;
67712;SDS011;67640;55.784;49.138;2023-09-08T11:44:15;5.50;;;1.30;;
67712;SDS011;67640;55.784;49.138;2023-09-08T11:49:19;3.93;;;0.90;;
67712;SDS011;67640;55.784;49.138;2023-09-08T11:54:25;2.50;;;0.72;;
67712;SDS011;67640;55.784;49.138;2023-09-08T12:00:02;5.62;;;0.70;;
67712;SDS011;67640;55.784;49.138;2023-09-08T12:10:47;4.22;;;0.82;;
67712;SDS011;67640;55.784;49.138;2023-09-08T12:27:10;4.92;;;0.57;;
67712;SDS011;67640;55.784;49.138;2023-09-08T12:32:15;3.27;;;0.50;;
67712;SDS011;67640;55.784;49.138;2023-09-08T12:37:32;4.73;;;0.50;;
67712;SDS011;67640;55.784;49.138;2023-09-08T12:42:37;2.33;;;0.60;;
67712;SDS011;67640;55.784;49.138;2023-09-08T12:47:58;2.80;;;1.17;;
67712;SDS011;67640;55.784;49.138;2023-09-08T12:53:18;2.70;;;0.60;;
67712;SDS011;67640;55.784;49.138;2023-09-08T12:58:22;1.62;;;0.42;;
67712;SDS011;67640;55.784;49.138;2023-09-08T13:03:28;3.30;;;0.70;;
67712;SDS011;67640;55.784;49.138;2023-09-08T13:08:45;3.58;;;0.80;;
67712;SDS011;67640;55.784;49.138;2023-09-08T13:13:51;3.37;;;0.60;;
67712;SDS011;67640;55.784;49.138;2023-09-08T13:18:55;2.72;;;0.60;;
67712;SDS011;67640;55.784;49.138;2023-09-08T13:24:03;3.57;;;0.70;;
67712;SDS011;67640;55.784;49.138;2023-09-08T13:29:21;1.60;;;0.50;;
67712;SDS011;67640;55.784;49.138;2023-09-08T13:34:40;2.22;;;0.50;;
67712;SDS011;67640;55.784;49.138;2023-09-08T13:39:46;2.73;;;0.60;;
67712;SDS011;67640;55.784;49.138;2023-09-08T13:45:05;4.90;;;0.70;;
67712;SDS011;67640;55.784;49.138;2023-09-08T13:50:24;5.83;;;0.50;;
67712;SDS011;67640;55.784;49.138;2023-09-08T13:55:44;4.60;;;0.73;;
67712;SDS011;67640;55.784;49.138;2023-09-08T14:01:03;2.67;;;0.70;;
67712;SDS011;67640;55.784;49.138;2023-09-08T14:06:08;3.00;;;0.70;;
67712;SDS011;67640;55.784;49.138;2023-09-08T14:11:14;4.78;;;0.50;;
67712;SDS011;67640;55.784;49.138;2023-09-08T14:16:19;3.60;;;0.65;;
67712;SDS011;67640;55.784;49.138;2023-09-08T14:21:39;2.37;;;0.60;;
67712;SDS011;67640;55.784;49.138;2023-09-08T14:26:58;1.98;;;0.50;;
67712;SDS011;67640;55.784;49.138;2023-09-08T14:32:17;4.83;;;0.60;;
67712;SDS011;67640;55.784;49.138;2023-09-08T14:37:23;3.33;;;0.70;;
67712;SDS011;67640;55.784;49.138;2023-09-08T14:42:28;1.92;;;0.55;;
67712;SDS011;67640;55.784;49.138;2023-09-08T14:47:46;3.20;;;0.80;;
67712;SDS011;67640;55.784;49.138;2023-09-08T14:52:51;3.83;;;0.90;;
67712;SDS011;67640;55.784;49.138;2023-09-08T14:58:10;3.37;;;0.90;;
67712;SDS011;67640;55.784;49.138;2023-09-08T15:03:42;4.20;;;1.10;;
67712;SDS011;67640;55.784;49.138;2023-09-08T15:08:48;6.03;;;1.23;;
67712;SDS011;67640;55.784;49.138;2023-09-08T15:13:54;6.00;;;1.25;;
67712;SDS011;67640;55.784;49.138;2023-09-08T15:19:00;11.07;;;3.27;;
67712;SDS011;67640;55.784;49.138;2023-09-08T15:24:19;4.10;;;1.40;;
67712;SDS011;67640;55.784;49.138;2023-09-08T15:29:36;6.47;;;1.72;;
67712;SDS011;67640;55.784;49.138;2023-09-08T15:34:42;8.43;;;1.52;;
67712;SDS011;67640;55.784;49.138;2023-09-08T15:39:47;4.03;;;1.10;;
67712;SDS011;67640;55.784;49.138;2023-09-08T15:45:06;3.58;;;0.93;;
67712;SDS011;67640;55.784;49.138;2023-09-08T15:50:25;3.33;;;1.03;;
67712;SDS011;67640;55.784;49.138;2023-09-08T15:55:44;10.75;;;3.45;;
67712;SDS011;67640;55.784;49.138;2023-09-08T16:00:50;19.40;;;7.53;;
67712;SDS011;67640;55.784;49.138;2023-09-08T16:05:55;7.40;;;2.20;;
67712;SDS011;67640;55.784;49.138;2023-09-08T16:11:15;6.70;;;1.60;;
67712;SDS011;67640;55.784;49.138;2023-09-08T16:16:20;4.95;;;1.65;;
67712;SDS011;67640;55.784;49.138;2023-09-08T16:21:38;6.58;;;2.02;;
67712;SDS011;67640;55.784;49.138;2023-09-08T16:26:43;5.07;;;1.90;;
67712;SDS011;67640;55.784;49.138;2023-09-08T16:32:02;6.75;;;2.33;;
67712;SDS011;67640;55.784;49.138;2023-09-08T16:37:21;12.37;;;2.53;;
67712;SDS011;67640;55.784;49.138;2023-09-08T16:42:40;8.50;;;2.40;;
67712;SDS011;67640;55.784;49.138;2023-09-08T16:48:05;13.03;;;3.10;;
67712;SDS011;67640;55.784;49.138;2023-09-08T16:53:10;10.00;;;3.73;;
67712;SDS011;67640;55.784;49.138;2023-09-08T16:58:30;12.28;;;3.52;;
67712;SDS011;67640;55.784;49.138;2023-09-08T17:03:35;12.60;;;3.80;;
67712;SDS011;67640;55.784;49.138;2023-09-08T17:08:54;10.17;;;3.67;;
67712;SDS011;67640;55.784;49.138;2023-09-08T17:14:13;15.20;;;4.40;;
67712;SDS011;67640;55.784;49.138;2023-09-08T17:19:32;12.53;;;4.43;;
67712;SDS011;67640;55.784;49.138;2023-09-08T17:24:37;12.50;;;4.00;;
67712;SDS011;67640;55.784;49.138;2023-09-08T17:29:43;10.72;;;3.72;;
67712;SDS011;67640;55.784;49.138;2023-09-08T17:34:48;11.70;;;4.00;;
67712;SDS011;67640;55.784;49.138;2023-09-08T17:40:06;11.37;;;3.97;;
67712;SDS011;67640;55.784;49.138;2023-09-08T17:45:11;10.72;;;4.22;;
67712;SDS011;67640;55.784;49.138;2023-09-08T17:50:30;17.60;;;4.40;;
67712;SDS011;67640;55.784;49.138;2023-09-08T17:55:50;9.45;;;4.40;;
67712;SDS011;67640;55.784;49.138;2023-09-08T18:01:10;13.75;;;4.30;;
67712;SDS011;67640;55.784;49.138;2023-09-08T18:06:15;11.20;;;4.30;;
67712;SDS011;67640;55.784;49.138;2023-09-08T18:11:20;11.93;;;4.17;;
67712;SDS011;67640;55.784;49.138;2023-09-08T18:16:39;14.25;;;4.30;;
67712;SDS011;67640;55.784;49.138;2023-09-08T18:21:44;10.77;;;4.30;;
67712;SDS011;67640;55.784;49.138;2023-09-08T18:26:50;12.47;;;3.92;;
67712;SDS011;67640;55.784;49.138;2023-09-08T18:32:09;12.13;;;3.80;;
67712;SDS011;67640;55.784;49.138;2023-09-08T18:37:28;12.58;;;3.62;;
67712;SDS011;67640;55.784;49.138;2023-09-08T18:42:47;12.90;;;4.00;;
67712;SDS011;67640;55.784;49.138;2023-09-08T18:47:53;11.90;;;4.00;;
67712;SDS011;67640;55.784;49.138;2023-09-08T18:52:58;11.57;;;3.62;;
67712;SDS011;67640;55.784;49.138;2023-09-08T18:58:03;11.10;;;3.77;;
67712;SDS011;67640;55.784;49.138;2023-09-08T19:03:22;12.30;;;3.50;;
67712;SDS011;67640;55.784;49.138;2023-09-08T19:08:41;10.48;;;2.75;;
67712;SDS011;67640;55.784;49.138;2023-09-08T19:13:59;10.28;;;2.98;;
67712;SDS011;67640;55.784;49.138;2023-09-08T19:19:04;7.00;;;2.90;;
67712;SDS011;67640;55.784;49.138;2023-09-08T19:24:23;12.15;;;2.75;;
67712;SDS011;67640;55.784;49.138;2023-09-08T19:29:28;11.90;;;2.90;;
67712;SDS011;67640;55.784;49.138;2023-09-08T19:34:33;8.97;;;2.83;;
67712;SDS011;67640;55.784;49.138;2023-09-08T19:39:53;11.38;;;2.87;;
67712;SDS011;67640;55.784;49.138;2023-09-08T19:45:12;8.87;;;3.13;;
67712;SDS011;67640;55.784;49.138;2023-09-08T19:50:31;8.03;;;2.60;;
67712;SDS011;67640;55.784;49.138;2023-09-08T19:55:36;9.35;;;3.08;;
67712;SDS011;67640;55.784;49.138;2023-09-08T20:00:43;8.97;;;3.00;;
67712;SDS011;67640;55.784;49.138;2023-09-08T20:05:58;9.78;;;2.95;;
67712;SDS011;67640;55.784;49.138;2023-09-08T20:11:17;11.80;;;3.23;;
67712;SDS011;67640;55.784;49.138;2023-09-08T20:16:36;9.68;;;2.90;;
67712;SDS011;67640;55.784;49.138;2023-09-08T20:21:56;10.13;;;3.10;;
67712;SDS011;67640;55.784;49.138;2023-09-08T20:27:01;10.63;;;3.07;;
67712;SDS011;67640;55.784;49.138;2023-09-08T20:32:06;7.28;;;2.87;;
67712;SDS011;67640;55.784;49.138;2023-09-08T20:37:25;9.85;;;2.77;;
67712;SDS011;67640;55.784;49.138;2023-09-08T20:42:30;8.27;;;3.10;;
67712;SDS011;67640;55.784;49.138;2023-09-08T20:47:36;8.83;;;2.85;;
67712;SDS011;67640;55.784;49.138;2023-09-08T20:52:55;9.05;;;2.95;;
67712;SDS011;67640;55.784;49.138;2023-09-08T20:58:14;8.93;;;2.90;;
67712;SDS011;67640;55.784;49.138;2023-09-08T21:03:34;8.25;;;3.22;;
67712;SDS011;67640;55.784;49.138;2023-09-08T21:08:40;10.90;;;3.30;;
67712;SDS011;67640;55.784;49.138;2023-09-08T21:13:46;10.55;;;2.80;;
67712;SDS011;67640;55.784;49.138;2023-09-08T21:19:04;6.78;;;2.33;;
67712;SDS011;67640;55.784;49.138;2023-09-08T21:24:10;8.93;;;2.80;;
67712;SDS011;67640;55.784;49.138;2023-09-08T21:29:15;5.62;;;2.25;;
67712;SDS011;67640;55.784;49.138;2023-09-08T21:34:20;5.90;;;1.80;;
67712;SDS011;67640;55.784;49.138;2023-09-08T21:39:39;3.47;;;1.33;;
67712;SDS011;67640;55.784;49.138;2023-09-08T21:44:59;5.90;;;1.80;;
67712;SDS011;67640;55.784;49.138;2023-09-08T21:50:04;4.67;;;1.50;;
67712;SDS011;67640;55.784;49.138;2023-09-08T21:55:23;4.87;;;1.00;;
67712;SDS011;67640;55.784;49.138;2023-09-08T22:00:30;2.60;;;0.80;;
67712;SDS011;67640;55.784;49.138;2023-09-08T22:05:39;2.40;;;0.80;;
67712;SDS011;67640;55.784;49.138;2023-09-08T22:16:38;3.87;;;0.90;;
67712;SDS011;67640;55.784;49.138;2023-09-08T22:21:43;3.25;;;0.80;;
67712;SDS011;67640;55.784;49.138;2023-09-08T22:26:57;3.33;;;0.90;;
67712;SDS011;67640;55.784;49.138;2023-09-08T22:32:15;2.65;;;0.78;;
67712;SDS011;67640;55.784;49.138;2023-09-08T22:37:20;3.30;;;0.90;;
67712;SDS011;67640;55.784;49.138;2023-09-08T22:42:25;3.10;;;0.85;;
67712;SDS011;67640;55.784;49.138;2023-09-08T22:47:44;2.17;;;0.60;;
67712;SDS011;67640;55.784;49.138;2023-09-08T22:53:04;3.40;;;0.80;;
67712;SDS011;67640;55.784;49.138;2023-09-08T22:58:23;3.92;;;0.75;;
67712;SDS011;67640;55.784;49.138;2023-09-08T23:03:28;2.70;;;0.70;;
67712;SDS011;67640;55.784;49.138;2023-09-08T23:08:32;2.30;;;0.70;;
67712;SDS011;67640;55.784;49.138;2023-09-08T23:13:37;3.83;;;0.73;;
67712;SDS011;67640;55.784;49.138;2023-09-08T23:18:56;4.10;;;0.70;;
67712;SDS011;67640;55.784;49.138;2023-09-08T23:24:16;2.50;;;0.80;;
67712;SDS011;67640;55.784;49.138;2023-09-08T23:29:20;2.83;;;0.90;;
67712;SDS011;67640;55.784;49.138;2023-09-08T23:34:40;2.62;;;0.75;;
67712;SDS011;67640;55.784;49.138;2023-09-08T23:39:45;2.90;;;0.80;;
67712;SDS011;67640;55.784;49.138;2023-09-08T23:44:49;9.05;;;1.22;;
67712;SDS011;67640;55.784;49.138;2023-09-08T23:50:08;2.10;;;0.75;;
67712;SDS011;67640;55.784;49.138;2023-09-08T23:55:13;2.80;;;0.80;;
